sensor_id;sensor_type;location;lat;lon;timestamp;pressure;altitude;pressure_sealevel;temperature;humidity
81232;BME280;70703;55.652;37.710;2024-03-22T00:00:08;100685.53;;;2.05;48.76
81232;BME280;70703;55.652;37.710;2024-03-22T00:00:25;100683.72;;;2.06;48.77
81232;BME280;70703;55.652;37.710;2024-03-22T00:00:37;100655.19;;;1.87;48.75
81232;BME280;70703;55.652;37.710;2024-03-22T00:00:49;100678.56;;;2.04;48.90
81232;BME280;70703;55.652;37.710;2024-03-22T00:01:02;100683.84;;;2.04;48.86
81232;BME280;70703;55.652;37.710;2024-03-22T00:01:13;100659.31;;;1.91;49.14
81232;BME280;70703;55.652;37.710;2024-03-22T00:01:26;100654.97;;;1.90;49.14
81232;BME280;70703;55.652;37.710;2024-03-22T00:01:37;100687.41;;;2.03;49.01
81232;BME280;70703;55.652;37.710;2024-03-22T00:01:49;100685.75;;;2.02;49.25
81232;BME280;70703;55.652;37.710;2024-03-22T00:02:03;100679.72;;;2.00;49.23
81232;BME280;70703;55.652;37.710;2024-03-22T00:02:14;100686.69;;;2.01;49.12
81232;BME280;70703;55.652;37.710;2024-03-22T00:02:25;100681.75;;;1.97;49.17
81232;BME280;70703;55.652;37.710;2024-03-22T00:02:38;100685.94;;;1.99;49.03
81232;BME280;70703;55.652;37.710;2024-03-22T00:02:50;100681.53;;;2.00;49.02
81232;BME280;70703;55.652;37.710;2024-03-22T00:03:04;100689.78;;;1.95;49.04
81232;BME280;70703;55.652;37.710;2024-03-22T00:03:16;100693.38;;;1.94;48.92
81232;BME280;70703;55.652;37.710;2024-03-22T00:03:29;100689.16;;;1.92;48.85
81232;BME280;70703;55.652;37.710;2024-03-22T00:03:41;100685.47;;;1.94;48.82
81232;BME280;70703;55.652;37.710;2024-03-22T00:03:53;100679.44;;;1.92;48.59
81232;BME280;70703;55.652;37.710;2024-03-22T00:04:05;100688.09;;;1.94;48.53
81232;BME280;70703;55.652;37.710;2024-03-22T00:04:17;100693.25;;;1.96;48.67
81232;BME280;70703;55.652;37.710;2024-03-22T00:04:30;100689.03;;;1.93;48.31
81232;BME280;70703;55.652;37.710;2024-03-22T00:04:41;100683.66;;;1.95;48.38
81232;BME280;70703;55.652;37.710;2024-03-22T00:04:54;100662.81;;;1.79;48.28
81232;BME280;70703;55.652;37.710;2024-03-22T00:05:07;100636.59;;;1.64;48.24
81232;BME280;70703;55.652;37.710;2024-03-22T00:05:20;100693.47;;;1.93;48.24
81232;BME280;70703;55.652;37.710;2024-03-22T00:05:33;100686.41;;;1.93;48.39
81232;BME280;70703;55.652;37.710;2024-03-22T00:06:15;100690.84;;;1.93;48.66
81232;BME280;70703;55.652;37.710;2024-03-22T00:06:28;100688.31;;;1.91;48.61
81232;BME280;70703;55.652;37.710;2024-03-22T00:06:45;100691.78;;;1.92;48.88
81232;BME280;70703;55.652;37.710;2024-03-22T00:06:59;100689.97;;;1.92;48.93
81232;BME280;70703;55.652;37.710;2024-03-22T00:07:11;100685.78;;;1.89;49.34
81232;BME280;70703;55.652;37.710;2024-03-22T00:07:23;100643.44;;;1.67;49.17
81232;BME280;70703;55.652;37.710;2024-03-22T00:07:34;100684.72;;;1.92;49.55
81232;BME280;70703;55.652;37.710;2024-03-22T00:07:48;100694.31;;;1.93;49.28
81232;BME280;70703;55.652;37.710;2024-03-22T00:07:59;100679.66;;;1.89;49.24
81232;BME280;70703;55.652;37.710;2024-03-22T00:08:11;100690.22;;;1.89;49.42
81232;BME280;70703;55.652;37.710;2024-03-22T00:08:22;100683.03;;;1.91;48.97
81232;BME280;70703;55.652;37.710;2024-03-22T00:08:35;100654.59;;;1.70;49.01
81232;BME280;70703;55.652;37.710;2024-03-22T00:08:48;100689.97;;;1.92;49.21
81232;BME280;70703;55.652;37.710;2024-03-22T00:09:00;100687.47;;;1.91;48.99
81232;BME280;70703;55.652;37.710;2024-03-22T00:09:12;100670.72;;;1.79;49.01
81232;BME280;70703;55.652;37.710;2024-03-22T00:09:23;100662.41;;;1.72;49.19
81232;BME280;70703;55.652;37.710;2024-03-22T00:09:35;100689.25;;;1.90;48.92
81232;BME280;70703;55.652;37.710;2024-03-22T00:09:47;100682.63;;;1.84;48.78
81232;BME280;70703;55.652;37.710;2024-03-22T00:09:59;100680.81;;;1.85;48.96
81232;BME280;70703;55.652;37.710;2024-03-22T00:10:11;100692.25;;;1.85;49.01
81232;BME280;70703;55.652;37.710;2024-03-22T00:10:24;100685.38;;;1.83;48.71
81232;BME280;70703;55.652;37.710;2024-03-22T00:10:37;100682.00;;;1.81;48.65
81232;BME280;70703;55.652;37.710;2024-03-22T00:10:49;100684.75;;;1.79;48.73
81232;BME280;70703;55.652;37.710;2024-03-22T00:11:02;100681.16;;;1.80;48.47
81232;BME280;70703;55.652;37.710;2024-03-22T00:11:15;100679.34;;;1.81;48.48
81232;BME280;70703;55.652;37.710;2024-03-22T00:11:26;100683.91;;;1.79;48.70
81232;BME280;70703;55.652;37.710;2024-03-22T00:11:39;100680.94;;;1.83;48.60
81232;BME280;70703;55.652;37.710;2024-03-22T00:11:50;100687.06;;;1.84;48.62
81232;BME280;70703;55.652;37.710;2024-03-22T00:12:02;100675.06;;;1.80;48.52
81232;BME280;70703;55.652;37.710;2024-03-22T00:12:14;100688.75;;;1.85;48.54
81232;BME280;70703;55.652;37.710;2024-03-22T00:12:26;100687.78;;;1.86;48.44
81232;BME280;70703;55.652;37.710;2024-03-22T00:12:38;100673.34;;;1.79;48.30
81232;BME280;70703;55.652;37.710;2024-03-22T00:12:50;100668.09;;;1.79;48.49
81232;BME280;70703;55.652;37.710;2024-03-22T00:13:03;100692.84;;;1.89;48.42
81232;BME280;70703;55.652;37.710;2024-03-22T00:13:16;100688.50;;;1.88;48.84
81232;BME280;70703;55.652;37.710;2024-03-22T00:13:28;100682.75;;;1.83;49.07
81232;BME280;70703;55.652;37.710;2024-03-22T00:13:41;100678.41;;;1.82;49.32
81232;BME280;70703;55.652;37.710;2024-03-22T00:13:53;100685.16;;;1.86;49.06
81232;BME280;70703;55.652;37.710;2024-03-22T00:14:05;100690.44;;;1.86;48.79
81232;BME280;70703;55.652;37.710;2024-03-22T00:14:17;100686.09;;;1.85;49.18
81232;BME280;70703;55.652;37.710;2024-03-22T00:14:29;100657.56;;;1.66;48.90
81232;BME280;70703;55.652;37.710;2024-03-22T00:14:41;100681.16;;;1.80;48.84
81232;BME280;70703;55.652;37.710;2024-03-22T00:14:52;100687.06;;;1.84;48.90
81232;BME280;70703;55.652;37.710;2024-03-22T00:15:07;100693.28;;;1.83;48.90
81232;BME280;70703;55.652;37.710;2024-03-22T00:15:20;100685.38;;;1.83;48.93
81232;BME280;70703;55.652;37.710;2024-03-22T00:15:31;100682.00;;;1.81;48.75
81232;BME280;70703;55.652;37.710;2024-03-22T00:15:43;100688.25;;;1.80;48.73
81232;BME280;70703;55.652;37.710;2024-03-22T00:15:57;100691.59;;;1.82;48.49
81232;BME280;70703;55.652;37.710;2024-03-22T00:16:09;100671.34;;;1.69;48.72
81232;BME280;70703;55.652;37.710;2024-03-22T00:16:20;100692.53;;;1.81;48.52
81232;BME280;70703;55.652;37.710;2024-03-22T00:16:31;100694.22;;;1.82;48.55
81232;BME280;70703;55.652;37.710;2024-03-22T00:16:43;100688.97;;;1.82;48.50
81232;BME280;70703;55.652;37.710;2024-03-22T00:16:54;100671.06;;;1.74;48.69
81232;BME280;70703;55.652;37.710;2024-03-22T00:17:07;100690.66;;;1.83;48.71
81232;BME280;70703;55.652;37.710;2024-03-22T00:17:19;100691.59;;;1.82;48.94
81232;BME280;70703;55.652;37.710;2024-03-22T00:17:31;100688.97;;;1.82;49.19
81232;BME280;70703;55.652;37.710;2024-03-22T00:17:45;100687.25;;;1.81;49.19
81232;BME280;70703;55.652;37.710;2024-03-22T00:17:57;100688.97;;;1.82;49.33
81232;BME280;70703;55.652;37.710;2024-03-22T00:18:09;100687.25;;;1.81;49.70
81232;BME280;70703;55.652;37.710;2024-03-22T00:18:21;100691.50;;;1.83;50.10
81232;BME280;70703;55.652;37.710;2024-03-22T00:18:33;100687.16;;;1.82;50.08
81232;BME280;70703;55.652;37.710;2024-03-22T00:18:45;100682.97;;;1.80;50.25
81232;BME280;70703;55.652;37.710;2024-03-22T00:18:58;100688.97;;;1.82;50.39
81232;BME280;70703;55.652;37.710;2024-03-22T00:19:10;100687.06;;;1.84;50.12
81232;BME280;70703;55.652;37.710;2024-03-22T00:19:22;100693.28;;;1.83;50.45
81232;BME280;70703;55.652;37.710;2024-03-22T00:19:34;100683.06;;;1.78;50.12
81232;BME280;70703;55.652;37.710;2024-03-22T00:19:47;100697.63;;;1.84;50.07
81232;BME280;70703;55.652;37.710;2024-03-22T00:19:58;100687.16;;;1.82;49.93
81232;BME280;70703;55.652;37.710;2024-03-22T00:20:12;100687.06;;;1.84;49.94
81232;BME280;70703;55.652;37.710;2024-03-22T00:20:24;100692.66;;;1.79;49.90
81232;BME280;70703;55.652;37.710;2024-03-22T00:20:35;100687.16;;;1.82;49.92
81232;BME280;70703;55.652;37.710;2024-03-22T00:20:47;100683.69;;;1.82;49.86
81232;BME280;70703;55.652;37.710;2024-03-22T00:21:00;100683.78;;;1.80;49.73
81232;BME280;70703;55.652;37.710;2024-03-22T00:21:14;100688.97;;;1.82;49.87
81232;BME280;70703;55.652;37.710;2024-03-22T00:21:25;100688.97;;;1.82;49.59
81232;BME280;70703;55.652;37.710;2024-03-22T00:21:37;100678.63;;;1.79;49.70
81232;BME280;70703;55.652;37.710;2024-03-22T00:21:48;100664.53;;;1.67;49.59
81232;BME280;70703;55.652;37.710;2024-03-22T00:22:00;100688.25;;;1.80;49.69
81232;BME280;70703;55.652;37.710;2024-03-22T00:22:12;100652.50;;;1.63;49.55
81232;BME280;70703;55.652;37.710;2024-03-22T00:22:25;100657.69;;;1.64;49.42
81232;BME280;70703;55.652;37.710;2024-03-22T00:22:36;100684.75;;;1.79;49.59
81232;BME280;70703;55.652;37.710;2024-03-22T00:22:47;100676.94;;;1.78;49.53
81232;BME280;70703;55.652;37.710;2024-03-22T00:22:59;100668.00;;;1.67;49.29
81232;BME280;70703;55.652;37.710;2024-03-22T00:23:10;100685.59;;;1.80;49.72
81232;BME280;70703;55.652;37.710;2024-03-22T00:23:22;100672.59;;;1.77;49.82
81232;BME280;70703;55.652;37.710;2024-03-22T00:23:34;100665.91;;;1.73;49.58
81232;BME280;70703;55.652;37.710;2024-03-22T00:23:48;100679.09;;;1.73;49.75
81232;BME280;70703;55.652;37.710;2024-03-22T00:24:01;100676.34;;;1.74;49.79
81232;BME280;70703;55.652;37.710;2024-03-22T00:24:15;100678.31;;;1.70;49.56
81232;BME280;70703;55.652;37.710;2024-03-22T00:24:26;100679.91;;;1.73;49.90
81232;BME280;70703;55.652;37.710;2024-03-22T00:24:39;100670.63;;;1.67;50.00
81232;BME280;70703;55.652;37.710;2024-03-22T00:24:52;100672.09;;;1.71;49.79
81232;BME280;70703;55.652;37.710;2024-03-22T00:25:05;100680.03;;;1.71;49.94
81232;BME280;70703;55.652;37.710;2024-03-22T00:25:18;100674.84;;;1.70;50.04
81232;BME280;70703;55.652;37.710;2024-03-22T00:25:30;100667.06;;;1.68;49.78
81232;BME280;70703;55.652;37.710;2024-03-22T00:25:43;100674.84;;;1.70;50.05
81232;BME280;70703;55.652;37.710;2024-03-22T00:25:55;100675.69;;;1.70;49.98
81232;BME280;70703;55.652;37.710;2024-03-22T00:26:07;100661.59;;;1.59;49.90
81232;BME280;70703;55.652;37.710;2024-03-22T00:26:19;100669.59;;;1.70;49.70
81232;BME280;70703;55.652;37.710;2024-03-22T00:26:32;100664.72;;;1.64;49.72
81232;BME280;70703;55.652;37.710;2024-03-22T00:26:45;100674.00;;;1.69;49.51
81232;BME280;70703;55.652;37.710;2024-03-22T00:27:00;100673.28;;;1.67;49.59
81232;BME280;70703;55.652;37.710;2024-03-22T00:27:13;100670.09;;;1.62;49.41
81232;BME280;70703;55.652;37.710;2024-03-22T00:27:25;100672.63;;;1.64;49.53
81232;BME280;70703;55.652;37.710;2024-03-22T00:27:36;100673.72;;;1.61;49.69
81232;BME280;70703;55.652;37.710;2024-03-22T00:27:48;100670.09;;;1.62;49.33
81232;BME280;70703;55.652;37.710;2024-03-22T00:27:59;100669.16;;;1.63;49.25
81232;BME280;70703;55.652;37.710;2024-03-22T00:28:11;100648.09;;;1.50;49.57
81232;BME280;70703;55.652;37.710;2024-03-22T00:28:24;100632.06;;;1.41;49.09
81232;BME280;70703;55.652;37.710;2024-03-22T00:28:36;100664.53;;;1.67;49.28
81232;BME280;70703;55.652;37.710;2024-03-22T00:28:47;100669.81;;;1.67;49.18
81232;BME280;70703;55.652;37.710;2024-03-22T00:28:58;100662.94;;;1.64;48.98
81232;BME280;70703;55.652;37.710;2024-03-22T00:29:11;100621.53;;;1.41;48.97
81232;BME280;70703;55.652;37.710;2024-03-22T00:29:23;100671.69;;;1.65;49.07
81232;BME280;70703;55.652;37.710;2024-03-22T00:29:34;100671.59;;;1.66;48.86
81232;BME280;70703;55.652;37.710;2024-03-22T00:29:45;100668.94;;;1.66;48.96
81232;BME280;70703;55.652;37.710;2024-03-22T00:29:56;100660.31;;;1.64;49.11
81232;BME280;70703;55.652;37.710;2024-03-22T00:30:10;100673.28;;;1.67;49.42
81232;BME280;70703;55.652;37.710;2024-03-22T00:30:22;100671.59;;;1.66;49.41
81232;BME280;70703;55.652;37.710;2024-03-22T00:30:33;100668.09;;;1.66;49.44
81232;BME280;70703;55.652;37.710;2024-03-22T00:30:46;100667.47;;;1.62;49.78
81232;BME280;70703;55.652;37.710;2024-03-22T00:30:58;100671.59;;;1.66;49.53
81232;BME280;70703;55.652;37.710;2024-03-22T00:31:10;100670.84;;;1.64;49.90
81232;BME280;70703;55.652;37.710;2024-03-22T00:31:23;100661.16;;;1.65;49.73
81232;BME280;70703;55.652;37.710;2024-03-22T00:31:35;100668.94;;;1.66;49.50
81232;BME280;70703;55.652;37.710;2024-03-22T00:31:47;100669.88;;;1.65;49.80
81232;BME280;70703;55.652;37.710;2024-03-22T00:31:58;100668.09;;;1.66;49.58
81232;BME280;70703;55.652;37.710;2024-03-22T00:32:11;100661.16;;;1.65;50.02
81232;BME280;70703;55.652;37.710;2024-03-22T00:32:23;100659.66;;;1.61;49.88
81232;BME280;70703;55.652;37.710;2024-03-22T00:32:35;100670.75;;;1.66;49.64
81232;BME280;70703;55.652;37.710;2024-03-22T00:32:46;100665.69;;;1.63;49.98
81232;BME280;70703;55.652;37.710;2024-03-22T00:32:59;100674.22;;;1.66;49.78
81232;BME280;70703;55.652;37.710;2024-03-22T00:33:11;100669.06;;;1.65;49.91
81232;BME280;70703;55.652;37.710;2024-03-22T00:33:23;100634.72;;;1.41;49.81
81232;BME280;70703;55.652;37.710;2024-03-22T00:33:35;100663.16;;;1.61;49.58
81232;BME280;70703;55.652;37.710;2024-03-22T00:33:46;100664.63;;;1.65;49.65
81232;BME280;70703;55.652;37.710;2024-03-22T00:33:58;100673.38;;;1.66;49.72
81232;BME280;70703;55.652;37.710;2024-03-22T00:34:09;100667.47;;;1.62;49.52
81232;BME280;70703;55.652;37.710;2024-03-22T00:34:23;100680.34;;;1.67;49.39
81232;BME280;70703;55.652;37.710;2024-03-22T00:34:35;100664.00;;;1.62;49.22
81232;BME280;70703;55.652;37.710;2024-03-22T00:34:47;100666.53;;;1.63;49.11
81232;BME280;70703;55.652;37.710;2024-03-22T00:34:59;100666.53;;;1.63;49.39
81232;BME280;70703;55.652;37.710;2024-03-22T00:35:11;100657.38;;;1.56;49.43
81232;BME280;70703;55.652;37.710;2024-03-22T00:35:23;100661.69;;;1.57;49.42
81232;BME280;70703;55.652;37.710;2024-03-22T00:35:35;100654.09;;;1.52;49.40
81232;BME280;70703;55.652;37.710;2024-03-22T00:35:48;100669.88;;;1.65;49.28
81232;BME280;70703;55.652;37.710;2024-03-22T00:36:00;100670.84;;;1.64;49.65
81232;BME280;70703;55.652;37.710;2024-03-22T00:36:11;100671.59;;;1.66;49.52
81232;BME280;70703;55.652;37.710;2024-03-22T00:36:23;100672.53;;;1.65;49.62
81232;BME280;70703;55.652;37.710;2024-03-22T00:36:35;100668.94;;;1.66;49.50
81232;BME280;70703;55.652;37.710;2024-03-22T00:36:46;100664.13;;;1.60;49.08
81232;BME280;70703;55.652;37.710;2024-03-22T00:36:58;100623.41;;;1.38;49.32
81232;BME280;70703;55.652;37.710;2024-03-22T00:37:10;100653.78;;;1.57;49.46
81232;BME280;70703;55.652;37.710;2024-03-22T00:37:22;100668.53;;;1.60;49.11
81232;BME280;70703;55.652;37.710;2024-03-22T00:37:34;100669.06;;;1.65;49.62
81232;BME280;70703;55.652;37.710;2024-03-22T00:37:47;100666.63;;;1.62;49.40
81232;BME280;70703;55.652;37.710;2024-03-22T00:37:59;100664.72;;;1.64;49.30
81232;BME280;70703;55.652;37.710;2024-03-22T00:38:10;100668.63;;;1.58;49.28
81232;BME280;70703;55.652;37.710;2024-03-22T00:38:22;100667.47;;;1.62;49.24
81232;BME280;70703;55.652;37.710;2024-03-22T00:38:36;100669.16;;;1.63;49.46
81232;BME280;70703;55.652;37.710;2024-03-22T00:38:47;100657.59;;;1.53;49.09
81232;BME280;70703;55.652;37.710;2024-03-22T00:38:59;100669.88;;;1.65;49.34
81232;BME280;70703;55.652;37.710;2024-03-22T00:39:11;100670.84;;;1.64;49.16
81232;BME280;70703;55.652;37.710;2024-03-22T00:39:24;100661.59;;;1.59;48.94
81232;BME280;70703;55.652;37.710;2024-03-22T00:39:35;100612.47;;;1.32;48.94
81232;BME280;70703;55.652;37.710;2024-03-22T00:39:47;100666.53;;;1.63;48.93
81232;BME280;70703;55.652;37.710;2024-03-22T00:39:58;100668.53;;;1.60;49.18
81232;BME280;70703;55.652;37.710;2024-03-22T00:40:13;100669.16;;;1.63;49.07
81232;BME280;70703;55.652;37.710;2024-03-22T00:40:26;100664.84;;;1.62;49.08
81232;BME280;70703;55.652;37.710;2024-03-22T00:40:38;100672.53;;;1.65;48.94
81232;BME280;70703;55.652;37.710;2024-03-22T00:40:50;100665.59;;;1.64;48.95
81232;BME280;70703;55.652;37.710;2024-03-22T00:41:04;100665.47;;;1.66;49.15
81232;BME280;70703;55.652;37.710;2024-03-22T00:41:16;100657.97;;;1.60;49.28
81232;BME280;70703;55.652;37.710;2024-03-22T00:41:28;100670.63;;;1.67;49.25
81232;BME280;70703;55.652;37.710;2024-03-22T00:41:41;100674.22;;;1.66;49.13
81232;BME280;70703;55.652;37.710;2024-03-22T00:41:54;100662.94;;;1.64;49.24
81232;BME280;70703;55.652;37.710;2024-03-22T00:42:06;100666.31;;;1.66;49.42
81232;BME280;70703;55.652;37.710;2024-03-22T00:42:19;100633.78;;;1.42;49.64
81232;BME280;70703;55.652;37.710;2024-03-22T00:42:30;100669.81;;;1.67;49.41
81232;BME280;70703;55.652;37.710;2024-03-22T00:42:43;100676.84;;;1.66;49.25
81232;BME280;70703;55.652;37.710;2024-03-22T00:42:55;100672.53;;;1.65;49.27
81232;BME280;70703;55.652;37.710;2024-03-22T00:43:07;100673.38;;;1.66;49.33
81232;BME280;70703;55.652;37.710;2024-03-22T00:43:19;100664.63;;;1.65;49.23
81232;BME280;70703;55.652;37.710;2024-03-22T00:43:31;100648.94;;;1.51;49.11
81232;BME280;70703;55.652;37.710;2024-03-22T00:43:43;100636.69;;;1.50;49.13
81232;BME280;70703;55.652;37.710;2024-03-22T00:43:56;100675.09;;;1.67;49.28
81232;BME280;70703;55.652;37.710;2024-03-22T00:44:08;100663.16;;;1.61;49.04
81232;BME280;70703;55.652;37.710;2024-03-22T00:44:21;100668.94;;;1.66;49.22
81232;BME280;70703;55.652;37.710;2024-03-22T00:44:33;100668.94;;;1.66;49.10
81232;BME280;70703;55.652;37.710;2024-03-22T00:44:45;100665.38;;;1.67;49.14
81232;BME280;70703;55.652;37.710;2024-03-22T00:44:57;100660.41;;;1.63;49.09
81232;BME280;70703;55.652;37.710;2024-03-22T00:45:12;100677.78;;;1.65;49.21
81232;BME280;70703;55.652;37.710;2024-03-22T00:45:24;100667.25;;;1.65;49.10
81232;BME280;70703;55.652;37.710;2024-03-22T00:45:37;100669.06;;;1.65;48.89
81232;BME280;70703;55.652;37.710;2024-03-22T00:45:49;100640.91;;;1.52;48.91
81232;BME280;70703;55.652;37.710;2024-03-22T00:46:01;100660.31;;;1.64;49.04
81232;BME280;70703;55.652;37.710;2024-03-22T00:46:14;100673.28;;;1.67;49.03
81232;BME280;70703;55.652;37.710;2024-03-22T00:46:26;100665.38;;;1.67;49.07
81232;BME280;70703;55.652;37.710;2024-03-22T00:46:38;100672.34;;;1.68;49.26
81232;BME280;70703;55.652;37.710;2024-03-22T00:46:49;100663.66;;;1.66;49.21
81232;BME280;70703;55.652;37.710;2024-03-22T00:47:02;100670.63;;;1.67;49.40
81232;BME280;70703;55.652;37.710;2024-03-22T00:47:14;100668.09;;;1.66;49.29
81232;BME280;70703;55.652;37.710;2024-03-22T00:47:28;100670.63;;;1.67;49.35
81232;BME280;70703;55.652;37.710;2024-03-22T00:47:40;100667.16;;;1.67;49.19
81232;BME280;70703;55.652;37.710;2024-03-22T00:47:51;100664.63;;;1.65;49.37
81232;BME280;70703;55.652;37.710;2024-03-22T00:48:05;100667.25;;;1.65;49.29
81232;BME280;70703;55.652;37.710;2024-03-22T00:48:18;100671.47;;;1.68;49.16
81232;BME280;70703;55.652;37.710;2024-03-22T00:48:30;100664.53;;;1.67;49.20
81232;BME280;70703;55.652;37.710;2024-03-22T00:48:41;100664.53;;;1.67;49.13
81232;BME280;70703;55.652;37.710;2024-03-22T00:48:53;100670.63;;;1.67;49.13
81232;BME280;70703;55.652;37.710;2024-03-22T00:49:04;100661.16;;;1.65;48.87
81232;BME280;70703;55.652;37.710;2024-03-22T00:49:16;100662.72;;;1.67;49.06
81232;BME280;70703;55.652;37.710;2024-03-22T00:49:29;100664.41;;;1.68;48.71
81232;BME280;70703;55.652;37.710;2024-03-22T00:49:40;100666.19;;;1.68;49.09
81232;BME280;70703;55.652;37.710;2024-03-22T00:49:52;100670.63;;;1.67;49.03
81232;BME280;70703;55.652;37.710;2024-03-22T00:50:07;100665.38;;;1.67;49.15
81232;BME280;70703;55.652;37.710;2024-03-22T00:50:20;100664.72;;;1.64;49.00
81232;BME280;70703;55.652;37.710;2024-03-22T00:50:33;100663.88;;;1.63;49.15
81232;BME280;70703;55.652;37.710;2024-03-22T00:50:45;100668.09;;;1.66;49.23
81232;BME280;70703;55.652;37.710;2024-03-22T00:50:58;100662.31;;;1.61;49.32
81232;BME280;70703;55.652;37.710;2024-03-22T00:51:09;100669.16;;;1.63;49.44
81232;BME280;70703;55.652;37.710;2024-03-22T00:51:22;100666.31;;;1.66;49.30
81232;BME280;70703;55.652;37.710;2024-03-22T00:51:34;100662.19;;;1.62;49.57
81232;BME280;70703;55.652;37.710;2024-03-22T00:51:47;100662.09;;;1.64;49.62
81232;BME280;70703;55.652;37.710;2024-03-22T00:52:00;100669.81;;;1.67;49.42
81232;BME280;70703;55.652;37.710;2024-03-22T00:52:12;100667.25;;;1.65;49.41
81232;BME280;70703;55.652;37.710;2024-03-22T00:52:23;100597.19;;;1.24;49.58
81232;BME280;70703;55.652;37.710;2024-03-22T00:52:35;100668.34;;;1.63;49.39
81232;BME280;70703;55.652;37.710;2024-03-22T00:52:47;100672.53;;;1.65;49.39
81232;BME280;70703;55.652;37.710;2024-03-22T00:53:00;100667.47;;;1.62;49.52
81232;BME280;70703;55.652;37.710;2024-03-22T00:53:15;100602.47;;;1.24;49.63
81232;BME280;70703;55.652;37.710;2024-03-22T00:53:26;100672.75;;;1.62;49.87
81232;BME280;70703;55.652;37.710;2024-03-22T00:53:39;100676.13;;;1.64;49.85
81232;BME280;70703;55.652;37.710;2024-03-22T00:53:50;100670.09;;;1.62;49.65
81232;BME280;70703;55.652;37.710;2024-03-22T00:54:01;100654.19;;;1.51;49.64
81232;BME280;70703;55.652;37.710;2024-03-22T00:54:13;100674.44;;;1.63;49.40
81232;BME280;70703;55.652;37.710;2024-03-22T00:54:26;100662.94;;;1.64;49.40
81232;BME280;70703;55.652;37.710;2024-03-22T00:54:37;100672.75;;;1.62;49.51
81232;BME280;70703;55.652;37.710;2024-03-22T00:54:51;100670.84;;;1.64;49.18
81232;BME280;70703;55.652;37.710;2024-03-22T00:55:05;100669.16;;;1.63;49.33
81232;BME280;70703;55.652;37.710;2024-03-22T00:55:16;100661.81;;;1.56;49.34
81232;BME280;70703;55.652;37.710;2024-03-22T00:55:28;100642.94;;;1.49;49.39
81232;BME280;70703;55.652;37.710;2024-03-22T00:55:39;100681.41;;;1.64;49.40
81232;BME280;70703;55.652;37.710;2024-03-22T00:55:53;100659.88;;;1.58;49.41
81232;BME280;70703;55.652;37.710;2024-03-22T00:56:06;100669.16;;;1.63;49.44
81232;BME280;70703;55.652;37.710;2024-03-22T00:56:18;100671.81;;;1.63;49.20
81232;BME280;70703;55.652;37.710;2024-03-22T00:56:29;100666.00;;;1.58;49.39
81232;BME280;70703;55.652;37.710;2024-03-22T00:56:43;100660.84;;;1.57;49.19
81232;BME280;70703;55.652;37.710;2024-03-22T00:56:54;100665.06;;;1.59;49.07
81232;BME280;70703;55.652;37.710;2024-03-22T00:57:08;100677.91;;;1.64;49.32
81232;BME280;70703;55.652;37.710;2024-03-22T00:57:20;100666.22;;;1.55;49.02
81232;BME280;70703;55.652;37.710;2024-03-22T00:57:33;100659.16;;;1.56;49.34
81232;BME280;70703;55.652;37.710;2024-03-22T00:57:44;100666.53;;;1.63;49.22
81232;BME280;70703;55.652;37.710;2024-03-22T00:57:56;100667.81;;;1.58;49.32
81232;BME280;70703;55.652;37.710;2024-03-22T00:58:09;100673.59;;;1.63;49.48
81232;BME280;70703;55.652;37.710;2024-03-22T00:58:20;100670.97;;;1.63;49.54
81232;BME280;70703;55.652;37.710;2024-03-22T00:58:33;100648.19;;;1.49;49.76
81232;BME280;70703;55.652;37.710;2024-03-22T00:58:44;100621.22;;;1.32;49.96
81232;BME280;70703;55.652;37.710;2024-03-22T00:58:57;100666.00;;;1.58;50.12
81232;BME280;70703;55.652;37.710;2024-03-22T00:59:11;100673.78;;;1.60;50.24
81232;BME280;70703;55.652;37.710;2024-03-22T00:59:23;100679.72;;;1.63;50.18
81232;BME280;70703;55.652;37.710;2024-03-22T00:59:35;100669.28;;;1.62;50.45
81232;BME280;70703;55.652;37.710;2024-03-22T00:59:46;100681.41;;;1.64;50.40
81232;BME280;70703;55.652;37.710;2024-03-22T00:59:58;100678.88;;;1.63;50.12
81232;BME280;70703;55.652;37.710;2024-03-22T01:00:12;100679.72;;;1.63;50.08
81232;BME280;70703;55.652;37.710;2024-03-22T01:00:25;100676.25;;;1.63;49.97
81232;BME280;70703;55.652;37.710;2024-03-22T01:00:36;100679.72;;;1.63;49.75
81232;BME280;70703;55.652;37.710;2024-03-22T01:00:50;100674.66;;;1.60;50.02
81232;BME280;70703;55.652;37.710;2024-03-22T01:01:04;100678.88;;;1.63;49.88
81232;BME280;70703;55.652;37.710;2024-03-22T01:01:15;100678.00;;;1.62;49.73
81232;BME280;70703;55.652;37.710;2024-03-22T01:01:27;100658.75;;;1.49;49.82
81232;BME280;70703;55.652;37.710;2024-03-22T01:01:40;100679.72;;;1.63;49.63
81232;BME280;70703;55.652;37.710;2024-03-22T01:01:52;100679.72;;;1.63;49.67
81232;BME280;70703;55.652;37.710;2024-03-22T01:02:03;100673.59;;;1.63;49.52
81232;BME280;70703;55.652;37.710;2024-03-22T01:02:16;100675.38;;;1.62;49.53
81232;BME280;70703;55.652;37.710;2024-03-22T01:02:28;100663.28;;;1.47;49.57
81232;BME280;70703;55.652;37.710;2024-03-22T01:02:40;100672.13;;;1.59;49.67
81232;BME280;70703;55.652;37.710;2024-03-22T01:02:52;100654.63;;;1.45;49.46
81232;BME280;70703;55.652;37.710;2024-03-22T01:03:04;100676.34;;;1.61;49.53
81232;BME280;70703;55.652;37.710;2024-03-22T01:03:17;100653.69;;;1.46;49.45
81232;BME280;70703;55.652;37.710;2024-03-22T01:03:30;100637.56;;;1.37;49.59
81232;BME280;70703;55.652;37.710;2024-03-22T01:03:41;100673.91;;;1.58;49.36
81232;BME280;70703;55.652;37.710;2024-03-22T01:03:55;100677.19;;;1.62;48.98
81232;BME280;70703;55.652;37.710;2024-03-22T01:04:08;100674.44;;;1.63;49.07
81232;BME280;70703;55.652;37.710;2024-03-22T01:04:21;100676.34;;;1.61;48.88
81232;BME280;70703;55.652;37.710;2024-03-22T01:04:34;100672.75;;;1.62;48.76
81232;BME280;70703;55.652;37.710;2024-03-22T01:04:46;100655.06;;;1.51;48.74